This is the latest recevied weather packets stored in our database for station/object KC9NPJ-13. If no packets are shown the sender has not sent any weather packets the latest 1 day(s).
| Time | Temp. | Humidity | Pressure | Rain* | Wind** | Luminosity | Snow |
|---|---|---|---|---|---|---|---|
| 1778095736 | 15° C | 65% | 1016.1 hPa | 0 mm | - | - | - |
| 1778095136 | 15.56° C | 69% | 1016.1 hPa | 0 mm | - | - | - |
| 1778094836 | 15° C | 65% | 1016.2 hPa | 0 mm | - | - | - |
| 1778094536 | 15° C | 69% | 1016.3 hPa | 0 mm | - | - | - |
| 1778094236 | 15° C | 68% | 1016.4 hPa | 0 mm | - | - | - |
| 1778093936 | 15° C | 67% | 1016.5 hPa | 0 mm | - | - | - |
| 1778093636 | 15° C | 65% | 1016.7 hPa | 0 mm | - | - | - |
| 1778093336 | 15° C | 70% | 1016.7 hPa | 0 mm | - | - | - |
| 1778093036 | 15° C | 74% | 1016.8 hPa | 0 mm | - | - | - |
| 1778092736 | 14.44° C | 70% | 1016.8 hPa | 0 mm | - | - | - |
| 1778092436 | 14.44° C | 71% | 1016.7 hPa | 0 mm | - | - | - |
| 1778092136 | 14.44° C | 71% | 1016.9 hPa | 0 mm | - | - | - |
| 1778091836 | 13.89° C | 71% | 1016.8 hPa | 0 mm | - | - | - |
| 1778091536 | 13.89° C | 73% | 1016.8 hPa | 0 mm | - | - | - |
| 1778091236 | 13.89° C | 75% | 1016.8 hPa | 0 mm | - | - | - |
| 1778090936 | 13.33° C | 75% | 1016.7 hPa | 0 mm | - | - | - |
| 1778090336 | 13.33° C | 74% | 1016.9 hPa | 0 mm | - | - | - |
| 1778090036 | 12.78° C | 77% | 1017.1 hPa | 0 mm | - | - | - |
| 1778089736 | 12.78° C | 76% | 1017 hPa | 0 mm | - | - | - |
| 1778089436 | 12.78° C | 76% | 1016.9 hPa | 0 mm | - | - | - |
| 1778088536 | 12.78° C | 75% | 1017 hPa | 0 mm | - | - | - |
| 1778087336 | 12.78° C | 79% | 1017.3 hPa | 0 mm | - | - | - |
| 1778076237 | 9.44° C | 90% | 1016.1 hPa | 0 mm | - | - | - |
| 1778075337 | 9.44° C | 91% | 1016 hPa | 0 mm | - | - | - |
| 1778075037 | 9.44° C | 92% | 1015.7 hPa | 0 mm | - | - | - |
* Rain latest hour (hover to see other rain measurements)
** Current wind speed in m/s (hover to see current wind gust speed)